createdAt,value
2023-05-24T00:00:30.971Z,2.90
2023-05-24T00:02:58.027Z,2.47
2023-05-24T00:05:24.961Z,2.38
2023-05-24T00:07:51.688Z,3.42
2023-05-24T00:10:18.432Z,2.25
2023-05-24T00:12:45.127Z,2.70
2023-05-24T00:15:12.089Z,2.63
2023-05-24T00:17:41.661Z,3.28
2023-05-24T00:20:12.333Z,2.72
2023-05-24T00:22:39.458Z,2.40
2023-05-24T00:25:06.708Z,2.50
2023-05-24T00:27:33.668Z,2.60
2023-05-24T00:30:00.462Z,2.78
2023-05-24T00:32:27.279Z,3.00
2023-05-24T00:34:54.075Z,2.60
2023-05-24T00:37:20.820Z,2.80
2023-05-24T00:39:50.727Z,2.92
2023-05-24T00:42:17.526Z,2.60
2023-05-24T00:44:44.259Z,2.50
2023-05-24T00:47:11.018Z,2.45
2023-05-24T00:49:37.790Z,2.92
2023-05-24T00:52:04.759Z,2.75
2023-05-24T00:54:31.449Z,2.55
2023-05-24T00:56:58.228Z,2.40
2023-05-24T00:59:25.027Z,3.08
2023-05-24T01:01:52.198Z,2.90
2023-05-24T01:04:20.543Z,3.05
2023-05-24T01:06:59.372Z,2.75
2023-05-24T01:09:34.269Z,2.72
2023-05-24T01:12:07.014Z,3.92
2023-05-24T01:14:51.985Z,2.97
2023-05-24T01:17:24.581Z,2.70
2023-05-24T01:19:51.433Z,2.75
2023-05-24T01:22:33.350Z,3.38
2023-05-24T01:25:31.092Z,3.58
2023-05-24T01:27:57.855Z,3.28
2023-05-24T01:30:26.743Z,3.08
2023-05-24T01:32:53.800Z,2.78
2023-05-24T01:35:20.721Z,3.00
2023-05-24T01:37:47.489Z,3.13
2023-05-24T01:40:14.242Z,3.15
2023-05-24T01:42:45.197Z,3.00
2023-05-24T01:45:17.298Z,2.88
2023-05-24T01:48:05.855Z,3.07
2023-05-24T01:50:35.204Z,3.60
2023-05-24T01:53:08.066Z,3.13
2023-05-24T01:55:35.444Z,3.30
2023-05-24T01:58:05.950Z,3.15
2023-05-24T02:00:33.620Z,2.97
2023-05-24T02:03:02.407Z,3.40
2023-05-24T02:05:29.365Z,3.42
2023-05-24T02:07:56.232Z,3.20
2023-05-24T02:10:23.043Z,3.97
2023-05-24T02:12:49.862Z,3.72
2023-05-24T02:15:16.716Z,2.92
2023-05-24T02:17:43.557Z,3.22
2023-05-24T02:20:11.207Z,2.92
2023-05-24T02:22:38.017Z,3.42
2023-05-24T02:25:05.233Z,3.78
2023-05-24T02:27:32.017Z,3.53
2023-05-24T02:29:58.900Z,3.88
2023-05-24T02:32:25.785Z,3.40
2023-05-24T02:34:52.666Z,3.67
2023-05-24T02:37:20.843Z,3.50
2023-05-24T02:39:47.708Z,3.70
2023-05-24T02:42:14.473Z,3.90
2023-05-24T02:44:42.956Z,3.42
2023-05-24T02:47:09.738Z,4.30
2023-05-24T02:49:36.496Z,5.28
2023-05-24T02:52:03.308Z,3.70
2023-05-24T02:54:30.112Z,3.60
2023-05-24T02:56:58.133Z,3.38
2023-05-24T02:59:25.204Z,2.80
2023-05-24T03:01:52.061Z,3.67
2023-05-24T03:04:18.899Z,3.40
2023-05-24T03:06:45.953Z,4.32
2023-05-24T03:09:13.090Z,3.40
2023-05-24T03:11:39.896Z,3.53
2023-05-24T03:14:06.972Z,3.85
2023-05-24T03:16:33.738Z,3.90
2023-05-24T03:19:00.624Z,3.95
2023-05-24T03:21:27.550Z,4.53
2023-05-24T03:23:54.355Z,3.70
2023-05-24T03:26:21.238Z,3.60
2023-05-24T03:28:48.016Z,4.25
2023-05-24T03:31:14.890Z,3.67
2023-05-24T03:33:41.680Z,4.05
2023-05-24T03:36:08.528Z,3.60
2023-05-24T03:38:35.351Z,4.28
2023-05-24T03:41:02.127Z,3.67
2023-05-24T03:43:28.931Z,3.97
2023-05-24T03:45:55.716Z,4.07
2023-05-24T03:48:22.589Z,3.92
2023-05-24T03:50:49.367Z,3.70
2023-05-24T03:53:16.339Z,3.90
2023-05-24T03:55:43.116Z,4.03
2023-05-24T03:58:09.905Z,3.90
2023-05-24T04:00:37.271Z,3.85
2023-05-24T04:03:06.946Z,3.80
2023-05-24T04:05:34.139Z,3.60
2023-05-24T04:08:00.978Z,3.75
2023-05-24T04:10:27.816Z,4.00
2023-05-24T04:12:57.212Z,3.90
2023-05-24T04:15:24.369Z,4.10
2023-05-24T04:17:55.460Z,3.95
2023-05-24T04:20:25.733Z,3.88
2023-05-24T04:22:52.728Z,4.18
2023-05-24T04:25:19.802Z,4.00
2023-05-24T04:27:48.913Z,4.10
2023-05-24T04:30:16.829Z,3.90
2023-05-24T04:32:46.921Z,4.45
2023-05-24T04:35:14.346Z,4.40
2023-05-24T04:37:41.212Z,3.97
2023-05-24T04:40:09.523Z,4.07
2023-05-24T04:42:36.588Z,4.28
2023-05-24T04:45:03.589Z,4.25
2023-05-24T04:47:30.541Z,3.58
2023-05-24T04:49:57.389Z,3.90
2023-05-24T04:52:24.625Z,3.75
2023-05-24T04:54:51.530Z,5.18
2023-05-24T04:57:18.382Z,5.10
2023-05-24T04:59:45.277Z,4.18
2023-05-24T05:02:12.228Z,4.40
2023-05-24T05:04:39.217Z,3.80
2023-05-24T05:07:07.484Z,4.13
2023-05-24T05:09:34.271Z,4.95
2023-05-24T05:12:01.171Z,3.70
2023-05-24T05:14:28.043Z,3.95
2023-05-24T05:16:55.181Z,3.88
2023-05-24T05:19:22.096Z,3.70
2023-05-24T05:21:48.850Z,3.70
2023-05-24T05:24:16.446Z,4.25
2023-05-24T05:26:43.274Z,4.10
2023-05-24T05:29:09.997Z,4.68
2023-05-24T05:31:37.160Z,4.32
2023-05-24T05:34:05.116Z,3.70
2023-05-24T05:36:32.526Z,4.85
2023-05-24T05:38:59.538Z,4.13
2023-05-24T05:41:26.330Z,4.00
2023-05-24T05:43:53.193Z,3.75
2023-05-24T05:46:21.768Z,3.63
2023-05-24T05:48:48.549Z,3.85
2023-05-24T05:51:15.421Z,5.85
2023-05-24T05:53:42.207Z,3.90
2023-05-24T05:56:08.980Z,3.25
2023-05-24T05:58:35.808Z,4.07
2023-05-24T06:01:05.910Z,3.67
2023-05-24T06:03:32.940Z,3.30
2023-05-24T06:05:59.779Z,4.07
2023-05-24T06:08:27.592Z,3.42
2023-05-24T06:10:54.337Z,3.67
2023-05-24T06:13:21.112Z,3.47
2023-05-24T06:15:47.941Z,3.75
2023-05-24T06:18:15.603Z,3.30
2023-05-24T06:20:42.617Z,3.28
2023-05-24T06:23:09.649Z,3.75
2023-05-24T06:25:38.813Z,3.05
2023-05-24T06:28:06.014Z,3.10
2023-05-24T06:30:34.049Z,3.00
2023-05-24T06:33:01.671Z,3.15
2023-05-24T06:35:28.576Z,3.65
2023-05-24T06:37:55.360Z,3.42
2023-05-24T06:40:22.226Z,3.05
2023-05-24T06:42:49.141Z,3.47
2023-05-24T06:45:16.106Z,2.85
2023-05-24T06:47:42.957Z,3.88
2023-05-24T06:50:09.826Z,2.83
2023-05-24T06:52:36.709Z,3.13
2023-05-24T06:55:04.162Z,3.38
2023-05-24T06:57:30.963Z,2.97
2023-05-24T06:59:58.122Z,3.35
2023-05-24T07:02:27.803Z,3.33
2023-05-24T07:04:55.116Z,3.40
2023-05-24T07:07:21.996Z,3.38
2023-05-24T07:09:48.771Z,3.55
2023-05-24T07:12:15.754Z,2.90
2023-05-24T07:14:43.104Z,3.30
2023-05-24T07:17:12.974Z,3.75
2023-05-24T07:19:39.881Z,3.38
2023-05-24T07:22:07.587Z,3.70
2023-05-24T07:24:35.038Z,3.25
2023-05-24T07:27:01.960Z,3.15
2023-05-24T07:29:31.389Z,3.33
2023-05-24T07:31:58.497Z,2.90
2023-05-24T07:34:27.752Z,3.05
2023-05-24T07:36:54.765Z,3.35
2023-05-24T07:39:21.633Z,3.42
2023-05-24T07:41:48.744Z,3.30
2023-05-24T07:44:15.927Z,3.30
2023-05-24T07:46:43.022Z,2.70
2023-05-24T07:49:09.817Z,2.63
2023-05-24T07:51:37.150Z,3.60
2023-05-24T07:54:04.157Z,2.90
2023-05-24T07:56:31.176Z,3.10
2023-05-24T07:59:03.804Z,3.53
2023-05-24T08:01:36.990Z,3.10
2023-05-24T08:04:04.427Z,4.10
2023-05-24T08:06:33.014Z,3.17
2023-05-24T08:08:59.934Z,3.55
2023-05-24T08:11:26.798Z,3.80
2023-05-24T08:13:53.644Z,3.50
2023-05-24T08:16:20.457Z,3.80
2023-05-24T08:18:47.325Z,3.90
2023-05-24T08:21:14.156Z,3.13
2023-05-24T08:23:41.427Z,4.57
2023-05-24T08:26:09.073Z,3.20
2023-05-24T08:28:36.104Z,3.83
2023-05-24T08:31:02.899Z,2.90
2023-05-24T08:33:30.026Z,3.53
2023-05-24T08:35:56.828Z,3.55
2023-05-24T08:38:23.594Z,3.92
2023-05-24T08:40:50.347Z,3.67
2023-05-24T08:43:17.116Z,3.42
2023-05-24T08:45:44.392Z,3.58
2023-05-24T08:48:13.288Z,3.55
2023-05-24T08:50:40.194Z,3.30
2023-05-24T08:53:07.330Z,4.25
2023-05-24T08:55:34.325Z,3.63
2023-05-24T08:58:01.199Z,3.47
2023-05-24T09:00:28.222Z,3.10
2023-05-24T09:02:55.159Z,3.22
2023-05-24T09:05:22.523Z,3.58
2023-05-24T09:07:50.652Z,4.18
2023-05-24T09:10:17.498Z,3.28
2023-05-24T09:12:50.473Z,3.70
2023-05-24T09:17:44.033Z,3.10
2023-05-24T09:20:11.991Z,3.72
2023-05-24T09:22:41.099Z,3.40
2023-05-24T09:25:09.903Z,3.63
2023-05-24T09:27:37.862Z,2.88
2023-05-24T09:30:10.427Z,3.53
2023-05-24T09:32:37.595Z,4.03
2023-05-24T09:35:08.422Z,3.47
2023-05-24T09:37:36.672Z,3.35
2023-05-24T09:40:07.266Z,3.20
2023-05-24T09:42:34.147Z,3.58
2023-05-24T09:45:12.101Z,3.67
2023-05-24T09:47:43.056Z,4.20
2023-05-24T09:50:15.000Z,3.30
2023-05-24T09:52:42.283Z,3.50
2023-05-24T09:55:16.180Z,4.55
2023-05-24T09:58:08.612Z,4.30
2023-05-24T10:00:41.824Z,4.20
2023-05-24T10:03:28.155Z,4.00
2023-05-24T10:05:55.077Z,3.30
2023-05-24T10:08:22.472Z,3.80
2023-05-24T10:10:49.238Z,4.18
2023-05-24T10:13:17.791Z,3.95
2023-05-24T10:15:46.120Z,4.30
2023-05-24T10:18:14.091Z,4.22
2023-05-24T10:23:30.633Z,4.20
2023-05-24T10:26:09.832Z,4.25
2023-05-24T10:28:58.550Z,4.28
2023-05-24T10:31:37.008Z,3.70
2023-05-24T10:34:08.400Z,4.50
2023-05-24T10:36:35.812Z,3.58
2023-05-24T10:39:03.702Z,3.75
2023-05-24T10:41:30.486Z,3.67
2023-05-24T10:41:46.873Z,3.72
2023-05-24T10:44:09.462Z,3.80
2023-05-24T10:46:38.514Z,4.90
2023-05-24T10:49:06.885Z,3.67
2023-05-24T10:51:38.920Z,4.03
2023-05-24T10:54:27.396Z,4.72
2023-05-24T10:56:54.387Z,3.88
2023-05-24T10:59:28.874Z,3.85
2023-05-24T11:01:57.835Z,3.90
2023-05-24T11:04:24.937Z,4.50
2023-05-24T11:07:03.639Z,3.70
2023-05-24T11:09:30.459Z,3.65
2023-05-24T11:12:04.269Z,4.60
2023-05-24T11:14:32.417Z,3.78
2023-05-24T11:17:00.535Z,3.80
2023-05-24T11:19:51.910Z,3.20
2023-05-24T11:22:24.406Z,3.60
2023-05-24T11:24:52.521Z,3.33
2023-05-24T11:27:19.466Z,3.75
2023-05-24T11:29:48.426Z,3.58
2023-05-24T11:32:17.154Z,2.83
2023-05-24T11:34:47.261Z,3.25
2023-05-24T11:37:16.788Z,3.28
2023-05-24T11:39:44.900Z,2.80
2023-05-24T11:42:12.390Z,3.88
2023-05-24T11:44:39.322Z,2.78
2023-05-24T11:47:08.366Z,3.25
2023-05-24T11:49:35.680Z,3.38
2023-05-24T11:52:02.935Z,2.70
2023-05-24T11:54:30.417Z,2.53
2023-05-24T11:56:57.554Z,3.13
2023-05-24T11:59:28.523Z,3.35
2023-05-24T12:02:03.908Z,3.17
2023-05-24T12:04:31.685Z,2.83
2023-05-24T12:06:58.941Z,2.63
2023-05-24T12:09:25.978Z,2.13
2023-05-24T12:11:53.584Z,2.83
2023-05-24T12:14:24.872Z,2.67
2023-05-24T12:16:56.267Z,2.42
2023-05-24T12:19:32.994Z,2.35
2023-05-24T12:22:04.979Z,3.65
2023-05-24T12:24:32.198Z,3.20
2023-05-24T12:27:03.408Z,2.53
2023-05-24T12:29:38.935Z,2.65
2023-05-24T12:32:11.925Z,2.63
2023-05-24T12:34:41.580Z,2.22
2023-05-24T12:37:09.409Z,2.78
2023-05-24T12:39:36.989Z,2.80
2023-05-24T12:42:04.960Z,2.40
2023-05-24T12:44:34.857Z,2.70
2023-05-24T12:47:02.858Z,2.60
2023-05-24T12:49:29.996Z,2.78
2023-05-24T12:51:57.314Z,2.72
2023-05-24T12:54:25.754Z,2.45
2023-05-24T12:56:56.722Z,2.38
2023-05-24T12:59:24.109Z,3.22
2023-05-24T13:01:52.143Z,2.42
2023-05-24T13:04:21.132Z,2.20
2023-05-24T13:06:48.504Z,2.70
2023-05-24T13:09:18.174Z,2.50
2023-05-24T13:11:45.693Z,2.20
2023-05-24T13:14:12.860Z,2.75
2023-05-24T13:16:39.846Z,2.63
2023-05-24T13:19:06.802Z,2.47
2023-05-24T13:21:33.999Z,2.53
2023-05-24T13:24:01.060Z,2.50
2023-05-24T13:26:28.109Z,3.17
2023-05-24T13:29:26.559Z,2.10
2023-05-24T13:31:42.064Z,2.10
2023-05-24T13:34:11.265Z,2.70
2023-05-24T13:36:38.696Z,2.35
2023-05-24T13:39:15.444Z,2.60
2023-05-24T13:41:43.566Z,2.08
2023-05-24T13:44:10.916Z,2.35
2023-05-24T13:46:38.954Z,2.45
2023-05-24T13:49:06.911Z,1.88
2023-05-24T13:51:33.699Z,2.80
2023-05-24T13:54:00.705Z,2.22
2023-05-24T13:56:32.973Z,2.47
2023-05-24T14:01:27.873Z,2.17
2023-05-24T14:03:54.801Z,2.25
2023-05-24T14:06:22.052Z,2.28
2023-05-24T14:08:49.314Z,2.20
2023-05-24T14:11:16.429Z,1.70
2023-05-24T14:14:43.162Z,2.00
2023-05-24T14:16:30.604Z,1.80
2023-05-24T14:18:57.592Z,1.92
2023-05-24T14:21:27.028Z,1.70
2023-05-24T14:23:54.300Z,2.08
2023-05-24T14:26:24.006Z,2.40
2023-05-24T14:28:53.592Z,2.40
2023-05-24T14:31:22.332Z,1.77
2023-05-24T14:33:49.188Z,2.42
2023-05-24T14:36:16.223Z,2.72
2023-05-24T14:38:43.070Z,2.20
2023-05-24T14:41:10.274Z,1.95
2023-05-24T14:43:38.083Z,2.30
2023-05-24T14:46:05.170Z,2.78
2023-05-24T14:48:31.994Z,2.55
2023-05-24T14:50:58.936Z,2.72
2023-05-24T14:53:25.815Z,2.17
2023-05-24T14:55:54.499Z,2.10
2023-05-24T14:58:21.446Z,2.20
2023-05-24T15:00:48.444Z,1.80
2023-05-24T15:03:15.613Z,1.83
2023-05-24T15:05:43.184Z,2.83
2023-05-24T15:08:11.438Z,2.00
2023-05-24T15:10:43.847Z,1.85
2023-05-24T15:13:11.108Z,1.80
2023-05-24T15:15:38.020Z,2.10
2023-05-24T15:18:05.028Z,2.33
2023-05-24T15:20:35.648Z,2.05
2023-05-24T15:23:03.653Z,2.20
2023-05-24T15:25:30.577Z,1.80
2023-05-24T15:27:58.096Z,1.98
2023-05-24T15:30:25.026Z,2.25
2023-05-24T15:32:51.907Z,2.15
2023-05-24T15:35:18.759Z,2.35
2023-05-24T15:37:46.180Z,2.65
2023-05-24T15:40:13.749Z,2.17
2023-05-24T15:42:40.817Z,1.90
2023-05-24T15:45:08.149Z,2.00
2023-05-24T15:47:40.670Z,2.30
2023-05-24T15:50:08.852Z,1.98
2023-05-24T15:52:36.343Z,2.08
2023-05-24T15:55:03.457Z,1.85
2023-05-24T15:57:30.998Z,1.77
2023-05-24T15:59:58.437Z,2.13
2023-05-24T16:02:25.465Z,1.85
2023-05-24T16:04:52.365Z,2.38
2023-05-24T16:07:19.736Z,2.00
2023-05-24T16:09:47.102Z,1.60
2023-05-24T16:12:13.905Z,2.45
2023-05-24T16:14:40.674Z,2.03
2023-05-24T16:17:07.695Z,1.75
2023-05-24T16:19:34.522Z,1.63
2023-05-24T16:22:01.372Z,1.90
2023-05-24T16:24:28.270Z,1.98
2023-05-24T16:26:56.982Z,2.38
2023-05-24T16:29:24.214Z,1.70
2023-05-24T16:31:51.262Z,2.10
2023-05-24T16:34:17.999Z,2.05
2023-05-24T16:36:47.539Z,1.95
2023-05-24T16:39:14.415Z,2.10
2023-05-24T16:41:41.625Z,1.85
2023-05-24T16:44:09.210Z,2.05
2023-05-24T16:46:37.010Z,1.88
2023-05-24T16:49:03.964Z,1.92
2023-05-24T16:51:30.920Z,1.40
2023-05-24T16:53:58.017Z,1.92
2023-05-24T16:56:24.828Z,2.33
2023-05-24T16:58:52.145Z,1.80
2023-05-24T17:01:19.434Z,1.65
2023-05-24T17:03:46.431Z,1.75
2023-05-24T17:06:13.313Z,2.25
2023-05-24T17:08:40.167Z,2.00
2023-05-24T17:11:07.276Z,2.10
2023-05-24T17:13:34.346Z,1.42
2023-05-24T17:16:03.215Z,1.77
2023-05-24T17:18:30.227Z,2.08
2023-05-24T17:21:02.031Z,1.85
2023-05-24T17:23:32.314Z,1.90
2023-05-24T17:25:59.681Z,1.90
2023-05-24T17:28:30.015Z,1.90
2023-05-24T17:30:58.230Z,2.38
2023-05-24T17:33:26.334Z,1.60
2023-05-24T17:35:56.639Z,2.53
2023-05-24T17:38:26.065Z,1.88
2023-05-24T17:40:59.477Z,1.73
2023-05-24T17:43:32.073Z,1.45
2023-05-24T17:48:37.110Z,1.90
2023-05-24T17:51:06.368Z,1.77
2023-05-24T17:53:34.996Z,2.03
2023-05-24T17:56:02.576Z,1.80
2023-05-24T17:58:36.292Z,1.60
2023-05-24T18:01:07.998Z,1.27
2023-05-24T18:03:37.713Z,1.38
2023-05-24T18:06:07.245Z,1.30
2023-05-24T18:08:36.262Z,1.30
2023-05-24T18:11:10.457Z,1.40
2023-05-24T18:13:38.521Z,1.60
2023-05-24T18:16:09.889Z,1.48
2023-05-24T18:18:37.922Z,1.33
2023-05-24T18:21:05.624Z,1.80
2023-05-24T18:23:37.566Z,1.33
2023-05-24T18:26:08.910Z,1.48
2023-05-24T18:28:39.515Z,1.40
2023-05-24T18:31:08.772Z,1.33
2023-05-24T18:33:35.812Z,1.00
2023-05-24T18:36:03.146Z,1.20
2023-05-24T18:38:30.468Z,1.20
2023-05-24T18:40:57.258Z,1.48
2023-05-24T18:43:24.070Z,1.10
2023-05-24T18:45:50.871Z,1.17
2023-05-24T18:48:17.647Z,1.27
2023-05-24T18:50:44.423Z,1.55
2023-05-24T18:53:11.183Z,1.33
2023-05-24T18:55:38.028Z,1.35
2023-05-24T18:58:04.810Z,1.30
2023-05-24T19:00:31.630Z,1.10
2023-05-24T19:02:58.402Z,1.13
2023-05-24T19:05:25.188Z,1.58
2023-05-24T19:07:52.026Z,1.40
2023-05-24T19:10:18.837Z,1.20
2023-05-24T19:12:45.682Z,1.45
2023-05-24T19:15:12.457Z,1.70
2023-05-24T19:17:39.236Z,1.30
2023-05-24T19:20:07.373Z,1.25
2023-05-24T19:22:34.229Z,1.45
2023-05-24T19:25:01.129Z,1.05
2023-05-24T19:27:28.559Z,1.98
2023-05-24T19:29:55.344Z,1.30
2023-05-24T19:32:22.523Z,1.10
2023-05-24T19:34:49.482Z,1.08
2023-05-24T19:37:16.517Z,1.02
2023-05-24T19:39:43.267Z,1.02
2023-05-24T19:42:11.798Z,1.20
2023-05-24T19:44:38.556Z,1.48
2023-05-24T19:47:06.107Z,1.52
2023-05-24T19:49:32.873Z,1.10
2023-05-24T19:52:00.356Z,1.20
2023-05-24T19:54:27.358Z,1.60
2023-05-24T19:56:56.150Z,1.65
2023-05-24T19:59:23.090Z,1.85
2023-05-24T20:01:49.916Z,1.35
2023-05-24T20:04:16.865Z,1.50
2023-05-24T20:06:43.652Z,1.48
2023-05-24T20:09:11.608Z,1.45
2023-05-24T20:11:38.474Z,1.67
2023-05-24T20:14:05.426Z,1.30
2023-05-24T20:16:32.309Z,1.77
2023-05-24T20:19:02.300Z,1.65
2023-05-24T20:21:29.186Z,1.27
2023-05-24T20:23:58.594Z,1.30
2023-05-24T20:26:26.106Z,1.60
2023-05-24T20:28:53.118Z,2.00
2023-05-24T20:31:20.022Z,1.60
2023-05-24T20:33:47.044Z,1.70
2023-05-24T20:36:15.233Z,1.67
2023-05-24T20:38:42.219Z,1.42
2023-05-24T20:41:09.300Z,1.70
2023-05-24T20:43:36.139Z,1.48
2023-05-24T20:46:03.061Z,1.60
2023-05-24T20:48:29.972Z,2.42
2023-05-24T20:50:57.489Z,1.70
2023-05-24T20:53:24.530Z,1.55
2023-05-24T20:55:51.356Z,1.38
2023-05-24T20:58:18.214Z,1.50
2023-05-24T21:00:45.846Z,1.42
2023-05-24T21:03:13.174Z,1.92
2023-05-24T21:05:40.587Z,1.50
2023-05-24T21:08:07.529Z,1.60
2023-05-24T21:10:34.331Z,1.80
2023-05-24T21:13:01.136Z,1.83
2023-05-24T21:15:27.956Z,1.60
2023-05-24T21:17:54.898Z,1.65
2023-05-24T21:20:22.031Z,1.83
2023-05-24T21:22:49.114Z,1.92
2023-05-24T21:25:16.026Z,1.70
2023-05-24T21:27:42.834Z,1.90
2023-05-24T21:30:10.042Z,1.40
2023-05-24T21:32:36.870Z,1.90
2023-05-24T21:35:03.827Z,2.30
2023-05-24T21:37:30.631Z,1.80
2023-05-24T21:39:57.350Z,1.55
2023-05-24T21:42:24.152Z,2.13
2023-05-24T21:44:50.905Z,1.52
2023-05-24T21:47:17.718Z,2.03
2023-05-24T21:49:44.588Z,2.22
2023-05-24T21:52:11.600Z,1.90
2023-05-24T21:54:38.425Z,2.03
2023-05-24T21:57:07.432Z,2.25
2023-05-24T21:59:34.359Z,2.03
2023-05-24T22:02:01.370Z,1.90
2023-05-24T22:04:28.165Z,2.10
2023-05-24T22:06:54.954Z,1.88
2023-05-24T22:09:22.060Z,2.80
2023-05-24T22:11:48.814Z,2.10
2023-05-24T22:14:16.093Z,2.13
2023-05-24T22:16:43.030Z,2.00
2023-05-24T22:19:14.947Z,1.77
2023-05-24T22:21:43.566Z,2.10
2023-05-24T22:24:10.597Z,2.00
2023-05-24T22:26:37.432Z,2.38
2023-05-24T22:29:04.516Z,2.00
2023-05-24T22:31:33.468Z,2.13
2023-05-24T22:34:03.159Z,2.30
2023-05-24T22:36:37.958Z,2.25
2023-05-24T22:39:05.334Z,2.75
2023-05-24T22:41:32.256Z,2.75
2023-05-24T22:43:59.800Z,1.60
2023-05-24T22:46:26.652Z,2.60
2023-05-24T22:48:53.542Z,1.92
2023-05-24T22:51:20.588Z,2.10
2023-05-24T22:53:48.084Z,2.60
2023-05-24T22:56:15.022Z,2.40
2023-05-24T22:58:41.831Z,2.45
2023-05-24T23:01:08.591Z,2.60
2023-05-24T23:03:35.566Z,1.90
2023-05-24T23:06:04.600Z,2.42
2023-05-24T23:16:00.157Z,2.38
2023-05-24T23:18:27.932Z,2.60
2023-05-24T23:20:56.247Z,2.80
2023-05-24T23:23:23.394Z,2.65
2023-05-24T23:25:51.214Z,2.97
2023-05-24T23:28:18.110Z,2.28
2023-05-24T23:30:44.940Z,2.30
2023-05-24T23:33:11.733Z,1.92
2023-05-24T23:35:41.485Z,3.00
2023-05-24T23:38:08.495Z,2.53
2023-05-24T23:40:36.567Z,2.97
2023-05-24T23:43:03.886Z,2.95
2023-05-24T23:45:30.898Z,2.20
2023-05-24T23:47:58.094Z,2.30
2023-05-24T23:50:25.093Z,2.63
2023-05-24T23:52:51.849Z,2.63
2023-05-24T23:55:18.659Z,2.60
2023-05-24T23:57:46.077Z,2.47
